createdAt,value
2022-08-18T04:00:18.696Z,62.35
2022-08-18T04:02:47.844Z,62.32
2022-08-18T04:05:17.020Z,62.33
2022-08-18T04:07:45.566Z,62.23
2022-08-18T04:10:19.231Z,62.11
2022-08-18T04:12:49.596Z,62.21
2022-08-18T04:15:21.173Z,62.24
2022-08-18T04:18:03.263Z,62.27
2022-08-18T04:20:33.518Z,62.38
2022-08-18T04:23:03.418Z,62.25
2022-08-18T04:25:33.598Z,62.15
2022-08-18T04:28:04.204Z,62.16
2022-08-18T04:30:33.011Z,62.24
2022-08-18T04:33:03.112Z,62.16
2022-08-18T04:35:31.980Z,62.17
2022-08-18T04:38:01.588Z,62.17
2022-08-18T04:40:34.134Z,62.15
2022-08-18T04:43:03.379Z,62.14
2022-08-18T04:45:32.892Z,62.08
2022-08-18T04:48:01.896Z,62.04
2022-08-18T04:50:31.276Z,62.03
2022-08-18T04:53:18.710Z,61.86
2022-08-18T04:55:52.940Z,61.69
2022-08-18T04:58:23.670Z,61.81
2022-08-18T05:01:01.431Z,61.68
2022-08-18T05:03:31.388Z,61.57
2022-08-18T05:06:04.754Z,61.53
2022-08-18T05:08:34.080Z,61.47
2022-08-18T05:11:04.220Z,61.36
2022-08-18T05:13:33.893Z,61.61
2022-08-18T05:16:13.930Z,61.53
2022-08-18T05:18:47.413Z,61.24
2022-08-18T05:21:16.813Z,61.44
2022-08-18T05:23:53.360Z,61.40
2022-08-18T05:26:37.517Z,61.29
2022-08-18T05:29:18.835Z,61.21
2022-08-18T05:31:54.283Z,61.19
2022-08-18T05:34:23.031Z,61.05
2022-08-18T05:37:07.463Z,61.04
2022-08-18T05:39:45.836Z,60.74
2022-08-18T05:42:20.718Z,60.15
2022-08-18T05:44:52.948Z,59.86
2022-08-18T05:47:30.984Z,59.78
2022-08-18T05:50:12.916Z,58.90
2022-08-18T05:52:56.860Z,57.97
2022-08-18T05:56:15.416Z,57.00
2022-08-18T05:58:49.980Z,56.36
2022-08-18T06:01:42.126Z,55.78
2022-08-18T06:04:32.956Z,54.94
2022-08-18T06:07:08.524Z,54.36
2022-08-18T06:09:58.410Z,54.43
2022-08-18T06:12:37.261Z,54.43
2022-08-18T06:15:20.063Z,54.64
2022-08-18T06:18:05.382Z,54.76
2022-08-18T06:20:46.731Z,54.95
2022-08-18T06:23:28.870Z,54.88
2022-08-18T06:26:03.766Z,54.95
2022-08-18T06:28:46.560Z,54.86
2022-08-18T06:31:45.937Z,54.60
2022-08-18T06:34:41.277Z,54.66
2022-08-18T06:37:24.823Z,54.49
2022-08-18T06:39:54.317Z,54.49
2022-08-18T06:42:31.491Z,54.22
2022-08-18T06:45:12.774Z,54.37
2022-08-18T06:48:30.682Z,54.29
2022-08-18T06:51:03.601Z,54.26
2022-08-18T06:54:03.381Z,54.06
2022-08-18T06:56:41.278Z,53.95
2022-08-18T06:59:19.450Z,53.91
2022-08-18T07:01:53.367Z,53.75
2022-08-18T07:04:38.040Z,53.68
2022-08-18T07:07:39.173Z,53.67
2022-08-18T07:10:16.362Z,53.40
2022-08-18T07:12:45.702Z,53.26
2022-08-18T07:15:24.766Z,53.10
2022-08-18T07:18:05.437Z,53.19
2022-08-18T07:20:49.697Z,53.03
2022-08-18T07:23:29.602Z,52.86
2022-08-18T07:26:16.043Z,52.86
2022-08-18T07:28:53.219Z,52.65
2022-08-18T07:31:49.368Z,52.54
2022-08-18T07:34:27.972Z,52.44
2022-08-18T07:37:06.257Z,52.16
2022-08-18T07:40:12.740Z,52.07
2022-08-18T07:43:01.174Z,52.15
2022-08-18T07:45:42.710Z,52.01
2022-08-18T07:48:37.740Z,51.69
2022-08-18T07:51:53.269Z,51.80
2022-08-18T07:54:48.495Z,51.55
2022-08-18T07:57:41.874Z,51.40
2022-08-18T08:01:00.227Z,51.21
2022-08-18T08:03:56.125Z,51.05
2022-08-18T08:06:37.511Z,51.03
2022-08-18T08:09:26.552Z,50.87
2022-08-18T08:12:24.628Z,50.72
2022-08-18T08:15:15.309Z,50.52
2022-08-18T08:17:56.564Z,50.55
2022-08-18T08:20:25.623Z,50.68
2022-08-18T08:23:18.782Z,50.38
2022-08-18T08:26:02.322Z,50.18
2022-08-18T08:28:34.555Z,50.03
2022-08-18T08:34:45.987Z,50.00
2022-08-18T08:37:48.778Z,49.78
2022-08-18T08:40:28.538Z,49.74
2022-08-18T08:43:08.457Z,49.58
2022-08-18T08:45:49.744Z,49.48
2022-08-18T08:48:29.359Z,49.31
2022-08-18T08:51:30.287Z,49.30
2022-08-18T08:54:08.266Z,49.05
2022-08-18T08:56:45.855Z,49.10
2022-08-18T08:59:22.152Z,49.08
2022-08-18T09:01:53.397Z,48.74
2022-08-18T09:04:55.791Z,48.84
2022-08-18T09:07:47.986Z,48.69
2022-08-18T09:10:22.340Z,48.57
2022-08-18T09:13:00.646Z,48.40
2022-08-18T09:15:48.628Z,48.35
2022-08-18T09:18:49.665Z,48.28
2022-08-18T09:21:50.743Z,48.15
2022-08-18T09:24:51.049Z,48.18
2022-08-18T09:28:09.787Z,48.08
2022-08-18T09:30:47.588Z,47.86
2022-08-18T09:33:22.039Z,47.50
2022-08-18T09:36:25.932Z,47.38
2022-08-18T09:39:37.274Z,47.29
2022-08-18T09:42:15.964Z,47.14
2022-08-18T09:44:48.248Z,47.07
2022-08-18T09:47:27.411Z,46.90
2022-08-18T09:50:05.947Z,46.65
2022-08-18T09:52:37.560Z,46.57
2022-08-18T09:55:29.021Z,46.78
2022-08-18T09:58:27.068Z,46.87
2022-08-18T10:01:34.420Z,46.77
2022-08-18T10:04:15.355Z,46.33
2022-08-18T10:06:51.656Z,46.42
2022-08-18T10:12:59.271Z,46.22
2022-08-18T10:15:34.729Z,46.12
2022-08-18T10:18:24.950Z,46.22
2022-08-18T10:21:04.687Z,46.04
2022-08-18T10:24:07.966Z,45.65
2022-08-18T10:27:03.962Z,45.44
2022-08-18T10:29:42.420Z,45.58
2022-08-18T10:32:14.832Z,45.55
2022-08-18T10:34:57.626Z,45.54
2022-08-18T10:37:47.145Z,45.36
2022-08-18T10:40:23.065Z,45.22
2022-08-18T10:43:45.949Z,44.80
2022-08-18T10:46:30.645Z,44.21
2022-08-18T10:49:22.295Z,44.60
2022-08-18T10:52:13.376Z,44.39
2022-08-18T10:55:16.258Z,44.71
2022-08-18T10:57:54.312Z,44.38
2022-08-18T11:00:28.081Z,44.38
2022-08-18T11:03:50.601Z,44.09
2022-08-18T11:06:09.036Z,43.85
2022-08-18T11:08:54.717Z,43.35
2022-08-18T11:11:39.415Z,43.39
2022-08-18T11:14:38.709Z,43.55
2022-08-18T11:17:26.384Z,43.59
2022-08-18T11:19:56.686Z,43.57
2022-08-18T11:22:34.271Z,43.42
2022-08-18T11:25:22.010Z,43.46
2022-08-18T11:27:51.523Z,43.02
2022-08-18T11:30:30.458Z,42.75
2022-08-18T11:33:02.843Z,42.88
2022-08-18T11:35:48.119Z,42.62
2022-08-18T11:38:23.167Z,42.64
2022-08-18T11:41:12.866Z,42.71
2022-08-18T11:43:46.804Z,42.36
2022-08-18T11:46:31.812Z,42.48
2022-08-18T11:49:15.714Z,42.42
2022-08-18T11:52:29.158Z,42.44
2022-08-18T11:58:00.225Z,42.51
2022-08-18T12:00:49.128Z,42.13
2022-08-18T12:03:37.551Z,42.10
2022-08-18T12:06:19.287Z,41.77
2022-08-18T12:09:19.994Z,41.90
2022-08-18T12:12:28.198Z,41.76
2022-08-18T12:15:24.099Z,41.65
2022-08-18T12:17:54.851Z,41.81
2022-08-18T12:20:23.583Z,41.18
2022-08-18T12:22:57.500Z,41.59
2022-08-18T12:25:26.355Z,41.42
2022-08-18T12:27:55.458Z,41.38
2022-08-18T12:30:24.541Z,41.26
2022-08-18T12:33:05.293Z,41.12
2022-08-18T12:35:35.237Z,41.42
2022-08-18T12:38:12.642Z,41.08
2022-08-18T12:40:44.126Z,41.01
2022-08-18T12:43:13.082Z,41.04
2022-08-18T12:45:42.157Z,40.80
2022-08-18T12:48:12.331Z,40.78
2022-08-18T12:50:53.969Z,40.78
2022-08-18T12:53:29.993Z,40.30
2022-08-18T12:56:21.105Z,40.76
2022-08-18T12:58:51.124Z,41.08
2022-08-18T13:01:20.459Z,40.92
2022-08-18T13:04:10.696Z,41.01
2022-08-18T13:06:59.102Z,40.79
2022-08-18T13:09:35.626Z,40.25
2022-08-18T13:12:20.123Z,40.58
2022-08-18T13:14:51.410Z,40.30
2022-08-18T13:17:30.091Z,40.39
2022-08-18T13:20:10.118Z,40.53
2022-08-18T13:22:42.846Z,40.40
2022-08-18T13:25:32.462Z,40.04
2022-08-18T13:28:06.321Z,40.05
2022-08-18T13:30:35.754Z,40.12
2022-08-18T13:33:35.315Z,40.22
2022-08-18T13:35:54.898Z,40.27
2022-08-18T13:38:27.681Z,40.02
2022-08-18T13:41:00.047Z,39.90
2022-08-18T13:43:32.452Z,39.67
2022-08-18T13:46:05.228Z,39.55
2022-08-18T13:48:35.219Z,39.18
2022-08-18T13:51:08.316Z,39.02
2022-08-18T13:53:57.405Z,38.99
2022-08-18T13:56:31.368Z,39.07
2022-08-18T13:59:00.825Z,38.93
2022-08-18T14:01:52.392Z,38.94
2022-08-18T14:04:23.178Z,38.85
2022-08-18T14:06:59.139Z,38.85
2022-08-18T14:09:37.005Z,38.84
2022-08-18T14:12:22.375Z,38.98
2022-08-18T14:14:55.077Z,38.55
2022-08-18T14:17:25.747Z,38.77
2022-08-18T14:20:14.996Z,38.74
2022-08-18T14:23:11.290Z,38.58
2022-08-18T14:26:00.262Z,38.64
2022-08-18T14:28:31.649Z,38.54
2022-08-18T14:31:02.604Z,38.59
2022-08-18T14:33:49.721Z,38.57
2022-08-18T14:36:29.954Z,38.79
2022-08-18T14:39:00.281Z,38.84
2022-08-18T14:41:29.857Z,38.71
2022-08-18T14:44:12.902Z,38.60
2022-08-18T14:46:54.511Z,38.71
2022-08-18T14:49:28.124Z,38.63
2022-08-18T14:52:00.487Z,38.77
2022-08-18T14:54:31.751Z,38.96
2022-08-18T14:57:02.779Z,38.93
2022-08-18T14:59:34.534Z,38.72
2022-08-18T15:02:13.060Z,38.73
2022-08-18T15:04:53.290Z,38.74
2022-08-18T15:07:26.905Z,38.90
2022-08-18T15:10:14.795Z,38.80
2022-08-18T15:12:45.537Z,38.90
2022-08-18T15:15:17.805Z,38.86
2022-08-18T15:17:50.386Z,38.96
2022-08-18T15:20:29.466Z,39.10
2022-08-18T15:23:28.189Z,38.99
2022-08-18T15:25:58.980Z,38.84
2022-08-18T15:28:28.781Z,38.79
2022-08-18T15:33:51.183Z,38.76
2022-08-18T15:36:24.098Z,38.85
2022-08-18T15:39:05.261Z,38.83
2022-08-18T15:41:44.215Z,38.91
2022-08-18T15:44:14.567Z,38.96
2022-08-18T15:46:47.244Z,38.54
2022-08-18T15:49:24.118Z,39.07
2022-08-18T15:51:53.109Z,38.96
2022-08-18T15:54:22.889Z,38.93
2022-08-18T15:56:58.335Z,39.05
2022-08-18T15:59:38.959Z,39.04
2022-08-18T16:02:11.996Z,39.13
2022-08-18T16:04:48.314Z,39.01
2022-08-18T16:07:27.048Z,39.01
2022-08-18T16:10:07.635Z,39.00
2022-08-18T16:12:36.317Z,39.10
2022-08-18T16:17:42.180Z,39.20
2022-08-18T16:20:12.610Z,39.10
2022-08-18T16:22:42.132Z,39.19
2022-08-18T16:25:11.768Z,39.44
2022-08-18T16:27:44.173Z,39.49
2022-08-18T16:30:17.097Z,39.24
2022-08-18T16:32:47.939Z,39.43
2022-08-18T16:35:19.038Z,39.53
2022-08-18T16:37:52.165Z,39.59
2022-08-18T16:40:21.292Z,39.55
2022-08-18T16:42:55.756Z,39.64
2022-08-18T16:45:24.633Z,39.86
2022-08-18T16:47:54.533Z,40.00
2022-08-18T16:50:25.561Z,39.96
2022-08-18T16:52:54.936Z,39.66
2022-08-18T16:55:23.615Z,40.16
2022-08-18T16:58:15.243Z,39.97
2022-08-18T17:01:03.834Z,40.01
2022-08-18T17:03:51.398Z,39.88
2022-08-18T17:06:21.091Z,39.89
2022-08-18T17:08:50.687Z,40.03
2022-08-18T17:11:20.554Z,39.89
2022-08-18T17:13:51.389Z,39.97
2022-08-18T17:16:22.954Z,40.01
2022-08-18T17:18:53.973Z,40.10
2022-08-18T17:21:25.895Z,40.07
2022-08-18T17:23:56.067Z,40.10
2022-08-18T17:26:30.730Z,40.21
2022-08-18T17:29:06.817Z,40.28
2022-08-18T17:31:36.080Z,40.30
2022-08-18T17:34:12.091Z,40.36
2022-08-18T17:36:54.250Z,40.39
2022-08-18T17:39:38.080Z,40.34
2022-08-18T17:42:25.893Z,40.50
2022-08-18T17:45:01.516Z,40.52
2022-08-18T17:47:38.555Z,40.51
2022-08-18T17:50:38.874Z,40.62
2022-08-18T17:53:09.733Z,40.67
2022-08-18T17:55:45.853Z,40.76
2022-08-18T17:58:31.817Z,40.74
2022-08-18T18:01:03.945Z,40.88
2022-08-18T18:03:34.286Z,40.97
2022-08-18T18:06:24.227Z,41.01
2022-08-18T18:08:58.186Z,41.06
2022-08-18T18:11:31.761Z,41.16
2022-08-18T18:14:25.072Z,41.21
2022-08-18T18:17:15.804Z,41.32
2022-08-18T18:19:47.362Z,41.35
2022-08-18T18:22:28.954Z,41.43
2022-08-18T18:25:07.649Z,41.54
2022-08-18T18:27:42.098Z,41.70
2022-08-18T18:30:16.997Z,41.80
2022-08-18T18:33:13.909Z,41.97
2022-08-18T18:35:58.170Z,42.02
2022-08-18T18:38:35.561Z,42.16
2022-08-18T18:41:21.861Z,42.15
2022-08-18T18:43:52.806Z,41.92
2022-08-18T18:46:33.742Z,42.18
2022-08-18T18:49:21.297Z,42.50
2022-08-18T18:52:15.949Z,42.85
2022-08-18T18:54:56.396Z,42.78
2022-08-18T18:57:51.251Z,42.73
2022-08-18T19:00:58.450Z,43.06
2022-08-18T19:03:42.858Z,42.97
2022-08-18T19:06:32.134Z,43.27
2022-08-18T19:09:43.751Z,43.28
2022-08-18T19:12:46.830Z,43.68
2022-08-18T19:15:17.143Z,44.00
2022-08-18T19:17:58.712Z,44.16
2022-08-18T19:20:42.508Z,44.38
2022-08-18T19:23:45.665Z,44.48
2022-08-18T19:26:25.327Z,44.62
2022-08-18T19:29:12.629Z,44.63
2022-08-18T19:31:51.862Z,44.90
2022-08-18T19:34:33.585Z,44.87
2022-08-18T19:37:27.497Z,44.88
2022-08-18T19:40:04.311Z,44.94
2022-08-18T19:43:00.549Z,45.03
2022-08-18T19:45:57.966Z,45.07
2022-08-18T19:48:37.044Z,45.22
2022-08-18T19:51:27.098Z,45.37
2022-08-18T19:54:14.826Z,45.56
2022-08-18T19:56:52.016Z,45.65
2022-08-18T19:59:38.944Z,45.54
2022-08-18T20:02:46.637Z,45.47
2022-08-18T20:05:27.876Z,45.69
2022-08-18T20:08:38.802Z,45.62
2022-08-18T20:11:44.138Z,45.82
2022-08-18T20:14:17.180Z,45.78
2022-08-18T20:17:04.668Z,45.85
2022-08-18T20:19:38.560Z,46.15
2022-08-18T20:22:27.750Z,46.29
2022-08-18T20:25:17.865Z,46.64
2022-08-18T20:28:01.121Z,46.94
2022-08-18T20:30:51.998Z,47.06
2022-08-18T20:33:24.278Z,47.13
2022-08-18T20:36:18.657Z,47.25
2022-08-18T20:38:50.712Z,47.37
2022-08-18T20:41:45.328Z,47.41
2022-08-18T20:44:41.576Z,47.46
2022-08-18T20:47:22.229Z,47.64
2022-08-18T20:50:18.778Z,47.67
2022-08-18T20:53:00.708Z,47.58
2022-08-18T20:55:48.999Z,47.58
2022-08-18T20:58:27.329Z,47.89
2022-08-18T21:00:57.648Z,47.91
2022-08-18T21:03:43.683Z,48.09
2022-08-18T21:06:16.243Z,48.17
2022-08-18T21:08:52.060Z,48.21
2022-08-18T21:11:31.982Z,48.15
2022-08-18T21:14:04.042Z,48.34
2022-08-18T21:16:45.232Z,48.35
2022-08-18T21:19:28.288Z,48.43
2022-08-18T21:22:04.314Z,48.43
2022-08-18T21:24:42.076Z,48.54
2022-08-18T21:27:36.345Z,48.64
2022-08-18T21:30:14.009Z,48.80
2022-08-18T21:32:47.252Z,48.81
2022-08-18T21:35:34.063Z,48.77
2022-08-18T21:38:11.437Z,48.93
2022-08-18T21:40:45.052Z,48.96
2022-08-18T21:43:32.894Z,49.03
2022-08-18T21:46:03.408Z,49.20
2022-08-18T21:48:42.077Z,49.29
2022-08-18T21:51:22.048Z,49.36
2022-08-18T21:53:51.844Z,49.41
2022-08-18T21:56:28.486Z,49.57
2022-08-18T21:59:11.528Z,49.67
2022-08-18T22:01:55.743Z,49.64
2022-08-18T22:04:34.815Z,49.65
2022-08-18T22:07:03.252Z,49.59
2022-08-18T22:10:11.300Z,49.77
2022-08-18T22:13:11.580Z,49.83
2022-08-18T22:15:42.817Z,49.90
2022-08-18T22:18:18.027Z,49.89
2022-08-18T22:21:27.189Z,50.01
2022-08-18T22:24:29.177Z,50.00
2022-08-18T22:27:05.091Z,50.18
2022-08-18T22:29:45.932Z,50.21
2022-08-18T22:32:16.185Z,50.21
2022-08-18T22:34:44.905Z,50.21
2022-08-18T22:37:19.228Z,50.25
2022-08-18T22:39:56.479Z,50.32
2022-08-18T22:42:29.701Z,50.42
2022-08-18T22:45:04.782Z,50.47
2022-08-18T22:47:43.163Z,50.44
2022-08-18T22:50:15.202Z,50.59
2022-08-18T22:52:50.184Z,50.64
2022-08-18T22:55:23.890Z,50.76
2022-08-18T22:57:57.027Z,50.81
